Time;durP1;ratioP1;P1;durP2;ratioP2;P2;SDS_P1;SDS_P2;PMS_P1;PMS_P2;Temp;Humidity;BMP_temperature;BMP_pressure;BME280_temperature;BME280_humidity;BME280_pressure;Samples;Min_cycle;Max_cycle;Signal;HPM_P1;HPM_P2
2023/01/29 00:01:02;;;;;;;14.60;7.85;;;;;;;;;;5072192;28;19951;-74
2023/01/29 00:03:27;;;;;;;;;;;;;;;;;;5072533;28;20113;-72
2023/01/29 00:05:53;;;;;;;9.52;5.47;;;;;;;;;;5071814;28;19912;-72
2023/01/29 00:08:18;;;;;;;11.13;6.30;;;;;;;;;;5072443;28;20381;-73
2023/01/29 00:10:43;;;;;;;10.10;5.90;;;;;;;;;;5071913;28;20025;-75
2023/01/29 00:13:09;;;;;;;12.95;6.55;;;;;;;;;;5071948;28;20048;-73
2023/01/29 00:15:34;;;;;;;10.43;5.57;;;;;;;;;;5071574;28;20025;-73
2023/01/29 00:18:00;;;;;;;10.27;5.43;;;;;;;;;;5072280;28;20460;-73
2023/01/29 00:20:25;;;;;;;10.45;6.28;;;;;;;;;;5071592;28;20025;-72
2023/01/29 00:22:50;;;;;;;11.07;6.00;;;;;;;;;;5072001;28;20047;-74
2023/01/29 00:25:16;;;;;;;9.35;5.65;;;;;;;;;;5071214;28;20024;-74
2023/01/29 00:27:42;;;;;;;11.77;5.80;;;;;;;;;;5071734;28;20086;-73
2023/01/29 00:30:11;;;;;;;9.70;5.55;;;;;;;;;;5053684;28;20028;-73
2023/01/29 00:32:36;;;;;;;9.65;6.00;;;;;;;;;;5071469;28;20040;-74
2023/01/29 00:35:02;;;;;;;9.02;5.68;;;;;;;;;;5071068;28;20028;-72
2023/01/29 00:37:28;;;;;;;10.18;6.03;;;;;;;;;;5071996;28;20040;-73
2023/01/29 00:39:53;;;;;;;9.82;5.75;;;;;;;;;;5071490;28;20043;-75
2023/01/29 00:45:03;;;;;;;12.60;6.18;;;;;;;;;;5070200;28;20513;-75
2023/01/29 00:47:34;;;;;;;10.20;5.60;;;;;;;;;;5071197;28;20052;-74
2023/01/29 00:50:00;;;;;;;11.57;5.82;;;;;;;;;;5070926;28;20128;-73
2023/01/29 00:52:27;;;;;;;12.95;6.63;;;;;;;;;;5071403;28;20027;-74
2023/01/29 00:54:57;;;;;;;11.65;6.72;;;;;;;;;;5071311;28;20033;-76
2023/01/29 00:57:25;;;;;;;12.20;7.13;;;;;;;;;;5071659;28;20040;-74
2023/01/29 00:59:51;;;;;;;13.88;7.88;;;;;;;;;;5071097;28;20396;-75
2023/01/29 01:05:04;;;;;;;13.82;8.10;;;;;;;;;;5074663;28;20392;-78
2023/01/29 01:07:30;;;;;;;12.90;7.97;;;;;;;;;;5074442;28;20101;-74
2023/01/29 01:12:40;;;;;;;12.35;7.40;;;;;;;;;;5073544;28;20039;-75
2023/01/29 01:15:06;;;;;;;14.52;7.93;;;;;;;;;;5082584;28;20024;-75
2023/01/29 01:17:31;;;;;;;13.73;7.05;;;;;;;;;;5082616;28;20192;-75
2023/01/29 01:19:56;;;;;;;11.45;6.57;;;;;;;;;;5082026;28;20024;-74
2023/01/29 01:22:22;;;;;;;10.80;6.47;;;;;;;;;;5082430;28;20031;-74
2023/01/29 01:24:47;;;;;;;11.13;6.82;;;;;;;;;;5082522;28;20016;-74
2023/01/29 01:27:13;;;;;;;11.52;6.68;;;;;;;;;;5082249;28;20048;-77
2023/01/29 01:29:38;;;;;;;10.88;7.05;;;;;;;;;;5082448;28;20118;-74
2023/01/29 01:32:04;;;;;;;11.43;6.50;;;;;;;;;;5082189;28;20107;-75
2023/01/29 01:34:30;;;;;;;12.60;6.80;;;;;;;;;;5082106;28;20021;-75
2023/01/29 01:36:55;;;;;;;11.02;6.00;;;;;;;;;;5081838;28;20032;-75
2023/01/29 01:39:21;;;;;;;11.43;6.50;;;;;;;;;;5082253;28;20055;-74
2023/01/29 01:41:47;;;;;;;14.68;6.65;;;;;;;;;;5082011;28;20016;-75
2023/01/29 01:44:49;;;;;;;9.93;5.97;;;;;;;;;;5082082;28;20028;-74
2023/01/29 01:47:18;;;;;;;11.20;6.22;;;;;;;;;;5081738;28;20283;-73
2023/01/29 01:49:44;;;;;;;9.68;5.80;;;;;;;;;;5081900;28;20087;-74
2023/01/29 01:52:11;;;;;;;14.30;5.90;;;;;;;;;;5081669;28;20410;-74
2023/01/29 01:54:37;;;;;;;9.50;5.85;;;;;;;;;;5081926;28;20031;-76
2023/01/29 01:57:15;;;;;;;11.48;5.93;;;;;;;;;;5081282;28;20100;-73
2023/01/29 01:59:45;;;;;;;9.82;5.85;;;;;;;;;;5081801;28;20035;-74
2023/01/29 02:10:31;;;;;;;9.70;5.55;;;;;;;;;;5081164;28;20366;-75
2023/01/29 02:12:57;;;;;;;12.20;6.15;;;;;;;;;;5081349;28;20531;-75
2023/01/29 02:15:22;;;;;;;11.60;6.35;;;;;;;;;;5081296;28;20017;-73
2023/01/29 02:17:47;;;;;;;11.13;6.43;;;;;;;;;;5081123;28;20082;-74
2023/01/29 02:20:19;;;;;;;11.93;6.32;;;;;;;;;;5081107;28;20028;-75
2023/01/29 02:22:58;;;;;;;11.02;6.35;;;;;;;;;;5081073;28;20504;-74
2023/01/29 02:25:50;;;;;;;10.98;5.90;;;;;;;;;;5081338;28;20021;-74
2023/01/29 02:28:34;;;;;;;10.27;6.20;;;;;;;;;;5081226;28;20039;-75
2023/01/29 02:31:20;;;;;;;11.55;5.90;;;;;;;;;;5081024;28;20082;-75
2023/01/29 02:34:12;;;;;;;11.15;5.97;;;;;;;;;;5080639;28;20040;-74
2023/01/29 02:36:55;;;;;;;12.77;6.50;;;;;;;;;;5080697;28;20028;-74
2023/01/29 02:40:00;;;;;;;11.88;6.45;;;;;;;;;;5063278;28;20032;-74
2023/01/29 02:43:02;;;;;;;9.85;5.63;;;;;;;;;;5079114;28;20079;-73
2023/01/29 02:45:43;;;;;;;11.77;6.55;;;;;;;;;;5067365;28;20095;-74
2023/01/29 02:48:17;;;;;;;12.95;6.88;;;;;;;;;;5080517;28;20029;-73
2023/01/29 02:50:49;;;;;;;13.25;6.70;;;;;;;;;;5080962;28;20036;-74
2023/01/29 02:53:24;;;;;;;11.15;6.20;;;;;;;;;;5080656;28;20048;-73
2023/01/29 02:55:56;;;;;;;10.02;5.65;;;;;;;;;;5080602;28;20331;-75
2023/01/29 02:58:53;;;;;;;12.00;5.93;;;;;;;;;;5081070;28;20027;-73
2023/01/29 03:01:29;;;;;;;10.68;6.07;;;;;;;;;;5025047;28;20040;-74
2023/01/29 03:04:00;;;;;;;9.40;5.57;;;;;;;;;;5080344;28;20086;-73
2023/01/29 03:06:34;;;;;;;9.38;5.75;;;;;;;;;;5080400;28;20020;-73
2023/01/29 03:09:37;;;;;;;10.38;5.35;;;;;;;;;;5080182;28;20055;-73
2023/01/29 03:12:27;;;;;;;10.27;5.38;;;;;;;;;;5076687;28;20033;-74
2023/01/29 03:15:13;;;;;;;10.52;5.80;;;;;;;;;;5080842;28;20038;-73
2023/01/29 03:17:50;;;;;;;11.40;5.57;;;;;;;;;;5080545;28;20029;-74
2023/01/29 03:20:19;;;;;;;9.05;5.50;;;;;;;;;;5080377;28;20281;-74
2023/01/29 03:22:54;;;;;;;9.98;5.13;;;;;;;;;;5080326;28;20028;-74
2023/01/29 03:33:44;;;;;;;11.80;5.60;;;;;;;;;;5079997;28;20283;-74
2023/01/29 03:36:44;;;;;;;9.82;5.53;;;;;;;;;;5080327;28;20056;-75
2023/01/29 03:39:12;;;;;;;10.30;4.90;;;;;;;;;;5080241;28;20036;-74
2023/01/29 03:41:48;;;;;;;9.38;5.00;;;;;;;;;;5080087;28;20030;-74
2023/01/29 03:44:29;;;;;;;9.48;5.40;;;;;;;;;;5081229;28;20039;-74
2023/01/29 03:46:56;;;;;;;9.68;5.53;;;;;;;;;;5082422;28;20074;-73
2023/01/29 03:49:43;;;;;;;9.02;5.15;;;;;;;;;;5081955;28;20059;-75
2023/01/29 03:52:20;;;;;;;9.25;5.20;;;;;;;;;;5080742;28;20047;-74
2023/01/29 03:54:59;;;;;;;10.05;5.43;;;;;;;;;;5080294;28;20034;-74
2023/01/29 03:57:35;;;;;;;11.48;5.28;;;;;;;;;;5079929;28;20055;-74
2023/01/29 04:00:20;;;;;;;9.02;5.05;;;;;;;;;;5080107;28;20025;-74
2023/01/29 04:03:25;;;;;;;9.10;5.28;;;;;;;;;;5079645;28;20051;-74
2023/01/29 04:06:04;;;;;;;8.18;5.13;;;;;;;;;;4978866;28;20035;-75
2023/01/29 04:08:32;;;;;;;8.50;5.38;;;;;;;;;;5071560;28;20044;-75
2023/01/29 04:11:00;;;;;;;8.27;4.88;;;;;;;;;;5080148;28;20028;-74
2023/01/29 04:13:28;;;;;;;10.98;5.55;;;;;;;;;;5080151;28;20251;-74
2023/01/29 04:15:59;;;;;;;9.00;5.07;;;;;;;;;;5080116;28;20216;-74
2023/01/29 04:18:24;;;;;;;10.18;6.03;;;;;;;;;;5061805;28;20788;-75
2023/01/29 04:20:51;;;;;;;9.60;5.47;;;;;;;;;;5081835;28;20031;-75
2023/01/29 04:23:25;;;;;;;9.35;5.40;;;;;;;;;;5083397;28;20082;-73
2023/01/29 04:26:23;;;;;;;9.77;5.50;;;;;;;;;;5083056;28;20058;-75
2023/01/29 04:29:07;;;;;;;8.02;5.07;;;;;;;;;;5083471;28;20028;-74
2023/01/29 04:31:42;;;;;;;9.15;5.13;;;;;;;;;;5079433;28;20055;-74
2023/01/29 04:34:35;;;;;;;9.15;5.43;;;;;;;;;;5080523;28;20441;-74
2023/01/29 04:37:15;;;;;;;9.63;5.50;;;;;;;;;;5076721;28;20024;-73
2023/01/29 04:40:09;;;;;;;10.55;5.55;;;;;;;;;;5073767;28;20127;-75
2023/01/29 04:43:29;;;;;;;9.43;5.65;;;;;;;;;;5079212;28;20373;-72
2023/01/29 04:46:11;;;;;;;8.73;5.22;;;;;;;;;;4972049;28;20027;-74
2023/01/29 04:48:42;;;;;;;10.95;5.75;;;;;;;;;;4970308;28;20027;-74
2023/01/29 04:51:22;;;;;;;9.00;5.78;;;;;;;;;;5043436;28;20072;-74
2023/01/29 04:53:57;;;;;;;9.05;5.60;;;;;;;;;;5071237;28;20110;-74
2023/01/29 04:56:31;;;;;;;9.82;5.45;;;;;;;;;;5071402;28;20025;-74
2023/01/29 04:59:05;;;;;;;7.97;5.00;;;;;;;;;;5072936;28;20028;-75
2023/01/29 05:01:32;;;;;;;8.20;5.03;;;;;;;;;;5071615;28;20020;-73
2023/01/29 05:04:01;;;;;;;11.07;5.15;;;;;;;;;;5070894;28;20043;-74
2023/01/29 05:06:30;;;;;;;8.15;5.05;;;;;;;;;;5071206;28;20090;-74
2023/01/29 05:08:56;;;;;;;8.23;5.15;;;;;;;;;;5071983;28;20048;-75
2023/01/29 05:11:23;;;;;;;8.70;5.32;;;;;;;;;;5077695;28;20062;-74
2023/01/29 05:13:49;;;;;;;8.73;5.25;;;;;;;;;;5079421;28;20503;-75
2023/01/29 05:16:26;;;;;;;10.05;5.13;;;;;;;;;;5075601;28;20086;-73
2023/01/29 05:18:52;;;;;;;10.60;5.53;;;;;;;;;;5073092;28;20029;-74
2023/01/29 05:21:18;;;;;;;9.77;5.60;;;;;;;;;;5071270;28;20048;-74
2023/01/29 05:23:52;;;;;;;8.82;5.28;;;;;;;;;;5072005;28;20075;-75
2023/01/29 05:29:03;;;;;;;10.05;5.72;;;;;;;;;;5070563;28;20039;-75
2023/01/29 05:31:28;;;;;;;10.32;5.38;;;;;;;;;;5070837;28;20025;-75
2023/01/29 05:33:54;;;;;;;8.93;5.15;;;;;;;;;;5070334;28;20392;-74
2023/01/29 05:36:20;;;;;;;10.43;5.32;;;;;;;;;;5079610;28;20021;-75
2023/01/29 05:38:45;;;;;;;11.18;5.45;;;;;;;;;;5078850;28;20123;-74
2023/01/29 05:41:10;;;;;;;8.70;5.43;;;;;;;;;;5073253;28;20025;-75
2023/01/29 05:43:36;;;;;;;8.77;5.22;;;;;;;;;;5078561;28;20020;-76
2023/01/29 05:46:01;;;;;;;9.00;5.10;;;;;;;;;;5073346;28;20021;-74
2023/01/29 05:48:28;;;;;;;9.73;5.30;;;;;;;;;;5071798;28;20844;-74
2023/01/29 05:50:58;;;;;;;9.02;5.20;;;;;;;;;;5075113;28;20029;-74
2023/01/29 05:53:23;;;;;;;8.50;5.30;;;;;;;;;;5079251;28;20032;-74
2023/01/29 05:55:49;;;;;;;9.45;5.90;;;;;;;;;;5078676;28;20041;-73
2023/01/29 05:58:14;;;;;;;9.23;5.38;;;;;;;;;;5076039;28;20021;-74
2023/01/29 06:00:40;;;;;;;9.40;5.10;;;;;;;;;;5079962;28;20232;-74
2023/01/29 06:03:05;;;;;;;8.20;4.88;;;;;;;;;;5076545;28;20104;-73
2023/01/29 06:05:31;;;;;;;10.85;5.38;;;;;;;;;;5074275;28;20031;-73
2023/01/29 06:07:56;;;;;;;9.18;5.00;;;;;;;;;;5077717;28;20441;-73
2023/01/29 06:10:22;;;;;;;7.82;4.72;;;;;;;;;;5076988;28;20028;-74
2023/01/29 06:12:48;;;;;;;9.32;5.40;;;;;;;;;;5079321;28;20036;-73
2023/01/29 06:15:14;;;;;;;8.57;5.30;;;;;;;;;;5076308;28;20031;-73
2023/01/29 06:17:40;;;;;;;9.48;5.45;;;;;;;;;;5074257;28;20078;-72
2023/01/29 06:20:07;;;;;;;8.63;5.03;;;;;;;;;;5075178;28;20461;-75
2023/01/29 06:22:32;;;;;;;9.35;5.43;;;;;;;;;;5074404;28;20032;-73
2023/01/29 06:24:58;;;;;;;10.00;5.07;;;;;;;;;;5075550;28;20029;-74
2023/01/29 06:27:23;;;;;;;8.60;5.07;;;;;;;;;;5077447;28;20549;-75
2023/01/29 06:29:48;;;;;;;9.95;5.47;;;;;;;;;;5081552;28;20020;-73
2023/01/29 06:32:14;;;;;;;8.50;5.28;;;;;;;;;;5084625;28;20021;-74
2023/01/29 06:34:39;;;;;;;10.05;6.07;;;;;;;;;;5076046;28;20028;-74
2023/01/29 06:37:06;;;;;;;9.93;5.13;;;;;;;;;;5075532;28;20021;-74
2023/01/29 06:39:32;;;;;;;10.23;5.13;;;;;;;;;;5075956;28;20051;-75
2023/01/29 06:41:58;;;;;;;11.20;6.43;;;;;;;;;;5074368;28;20112;-73
2023/01/29 06:44:23;;;;;;;9.15;5.60;;;;;;;;;;5072560;28;20048;-74
2023/01/29 06:46:48;;;;;;;9.80;5.78;;;;;;;;;;5076404;28;20215;-73
2023/01/29 06:49:14;;;;;;;9.43;5.15;;;;;;;;;;5076369;28;20035;-74
2023/01/29 06:51:39;;;;;;;8.00;5.13;;;;;;;;;;5080452;28;20083;-73
2023/01/29 06:54:07;;;;;;;14.65;5.70;;;;;;;;;;5077741;28;20040;-73
2023/01/29 06:56:33;;;;;;;9.13;5.55;;;;;;;;;;5075867;28;20047;-73
2023/01/29 06:58:58;;;;;;;10.57;5.55;;;;;;;;;;5078348;28;20036;-75
2023/01/29 07:01:24;;;;;;;10.98;5.82;;;;;;;;;;5079490;28;20029;-75
2023/01/29 07:03:50;;;;;;;8.48;5.32;;;;;;;;;;5074837;28;20038;-74
2023/01/29 07:06:16;;;;;;;10.20;5.90;;;;;;;;;;5073798;28;20388;-74
2023/01/29 07:08:41;;;;;;;10.40;5.50;;;;;;;;;;5076066;28;20029;-75
2023/01/29 07:11:07;;;;;;;10.35;5.78;;;;;;;;;;5071869;28;20039;-75
2023/01/29 07:13:32;;;;;;;8.65;5.18;;;;;;;;;;5073060;28;20028;-74
2023/01/29 07:16:02;;;;;;;10.02;5.57;;;;;;;;;;5074467;28;20074;-74
2023/01/29 07:18:28;;;;;;;9.38;5.45;;;;;;;;;;5073765;28;20032;-75
2023/01/29 07:20:54;;;;;;;10.50;5.72;;;;;;;;;;5055174;28;20032;-73
2023/01/29 07:23:20;;;;;;;11.07;5.72;;;;;;;;;;5076511;28;20279;-74
2023/01/29 07:25:45;;;;;;;10.68;6.32;;;;;;;;;;5074184;28;20024;-74
2023/01/29 07:28:11;;;;;;;10.95;6.07;;;;;;;;;;5072032;28;20124;-74
2023/01/29 07:30:37;;;;;;;10.55;6.22;;;;;;;;;;5079757;28;20032;-76
2023/01/29 07:33:03;;;;;;;9.93;6.25;;;;;;;;;;5080359;28;20028;-74
2023/01/29 07:35:28;;;;;;;13.55;7.22;;;;;;;;;;5079230;28;20028;-74
2023/01/29 07:37:54;;;;;;;12.10;6.80;;;;;;;;;;5080045;28;20019;-74
2023/01/29 07:40:19;;;;;;;11.45;6.18;;;;;;;;;;5078029;28;20221;-75
2023/01/29 07:42:45;;;;;;;9.63;5.80;;;;;;;;;;5079029;28;20047;-77
2023/01/29 07:45:11;;;;;;;10.27;5.70;;;;;;;;;;5079149;28;20044;-75
2023/01/29 07:47:36;;;;;;;9.65;5.57;;;;;;;;;;5084509;28;20025;-75
2023/01/29 07:50:03;;;;;;;11.02;6.28;;;;;;;;;;5077718;28;20091;-75
2023/01/29 07:52:30;;;;;;;11.30;6.07;;;;;;;;;;5077753;28;20040;-78
2023/01/29 07:54:55;;;;;;;9.90;5.68;;;;;;;;;;5079567;28;20028;-78
2023/01/29 07:57:21;;;;;;;9.52;5.85;;;;;;;;;;5079346;28;20039;-77
2023/01/29 07:59:46;;;;;;;9.20;5.90;;;;;;;;;;5066054;28;20031;-77
2023/01/29 08:02:12;;;;;;;10.63;6.13;;;;;;;;;;5082989;28;20320;-80
2023/01/29 08:04:37;;;;;;;11.43;5.75;;;;;;;;;;5083903;28;20078;-79
2023/01/29 08:07:03;;;;;;;9.95;5.63;;;;;;;;;;5085176;28;20070;-78
2023/01/29 08:09:30;;;;;;;10.52;5.90;;;;;;;;;;5080748;28;20063;-78
2023/01/29 08:11:56;;;;;;;10.55;6.32;;;;;;;;;;5078483;28;20047;-75
2023/01/29 08:14:22;;;;;;;12.10;6.60;;;;;;;;;;5083671;28;20040;-75
2023/01/29 08:16:47;;;;;;;10.75;6.45;;;;;;;;;;5083131;28;20038;-75
2023/01/29 08:19:13;;;;;;;12.75;6.47;;;;;;;;;;5083024;28;20404;-72
2023/01/29 08:21:38;;;;;;;12.48;6.40;;;;;;;;;;5083486;28;20020;-73
2023/01/29 08:24:04;;;;;;;9.15;5.55;;;;;;;;;;5083485;28;20020;-75
2023/01/29 08:26:29;;;;;;;11.30;5.95;;;;;;;;;;5083575;28;20024;-75
2023/01/29 08:28:54;;;;;;;12.40;6.45;;;;;;;;;;5083449;28;20060;-73
2023/01/29 08:31:20;;;;;;;10.95;6.55;;;;;;;;;;5075065;28;20063;-75
2023/01/29 08:33:46;;;;;;;12.40;7.05;;;;;;;;;;5074806;28;20035;-73
2023/01/29 08:36:11;;;;;;;16.27;8.15;;;;;;;;;;5091267;28;20483;-74
2023/01/29 08:38:37;;;;;;;15.68;8.85;;;;;;;;;;5091591;28;20532;-75
2023/01/29 08:41:03;;;;;;;13.98;8.20;;;;;;;;;;5091813;28;20450;-74
2023/01/29 08:43:28;;;;;;;13.57;7.15;;;;;;;;;;5073816;28;20028;-75
2023/01/29 08:45:53;;;;;;;13.18;6.50;;;;;;;;;;5082828;28;20054;-74
2023/01/29 08:48:19;;;;;;;11.65;6.60;;;;;;;;;;5071615;28;20025;-73
2023/01/29 08:50:44;;;;;;;11.02;6.72;;;;;;;;;;5070728;28;20033;-75
2023/01/29 08:53:10;;;;;;;11.73;6.45;;;;;;;;;;5071595;28;20028;-74
2023/01/29 08:55:39;;;;;;;12.13;6.85;;;;;;;;;;5071310;28;20128;-73
2023/01/29 08:58:07;;;;;;;11.55;6.70;;;;;;;;;;5071046;28;20032;-72
2023/01/29 09:00:33;;;;;;;11.18;6.55;;;;;;;;;;5071120;28;20029;-73
2023/01/29 09:02:59;;;;;;;10.60;6.63;;;;;;;;;;5071392;28;20127;-74
2023/01/29 09:05:26;;;;;;;11.10;6.70;;;;;;;;;;5070740;28;20028;-73
2023/01/29 09:07:55;;;;;;;10.65;6.45;;;;;;;;;;5069938;28;20454;-75
2023/01/29 09:10:20;;;;;;;12.35;6.65;;;;;;;;;;5071012;28;20085;-75
2023/01/29 09:12:46;;;;;;;11.75;6.40;;;;;;;;;;5070984;28;20025;-74
2023/01/29 09:15:11;;;;;;;10.57;6.35;;;;;;;;;;5070842;28;20032;-74
2023/01/29 09:17:36;;;;;;;11.77;6.63;;;;;;;;;;5058882;28;20492;-73
2023/01/29 09:20:04;;;;;;;10.75;6.18;;;;;;;;;;5069786;28;20032;-74
2023/01/29 09:22:31;;;;;;;12.07;6.88;;;;;;;;;;5070681;28;20020;-73
2023/01/29 09:24:56;;;;;;;11.25;6.68;;;;;;;;;;5070752;28;20036;-73
2023/01/29 09:27:21;;;;;;;12.25;7.28;;;;;;;;;;5070746;28;20031;-73
2023/01/29 09:29:47;;;;;;;11.60;6.68;;;;;;;;;;5070651;28;20028;-73
2023/01/29 09:32:12;;;;;;;11.75;6.50;;;;;;;;;;5070602;28;20017;-76
2023/01/29 09:34:38;;;;;;;11.05;6.70;;;;;;;;;;5070256;28;20641;-75
2023/01/29 09:37:03;;;;;;;12.15;6.40;;;;;;;;;;5070362;28;20028;-75
2023/01/29 09:39:28;;;;;;;10.98;6.70;;;;;;;;;;5070473;28;20036;-76
2023/01/29 09:42:02;;;;;;;12.30;6.75;;;;;;;;;;5071141;28;20190;-77
2023/01/29 09:44:39;;;;;;;10.50;6.47;;;;;;;;;;5070899;28;20028;-72
2023/01/29 09:47:10;;;;;;;12.27;6.60;;;;;;;;;;5077821;28;20028;-74
2023/01/29 09:49:41;;;;;;;12.40;7.13;;;;;;;;;;5073102;28;20039;-76
2023/01/29 09:52:12;;;;;;;10.82;6.57;;;;;;;;;;5072063;28;20321;-75
2023/01/29 09:55:05;;;;;;;10.95;6.03;;;;;;;;;;5070322;28;20472;-71
2023/01/29 09:57:48;;;;;;;10.18;6.45;;;;;;;;;;5075057;28;20055;-76
2023/01/29 10:00:25;;;;;;;11.23;5.95;;;;;;;;;;5070109;28;20024;-78
2023/01/29 10:03:09;;;;;;;10.18;6.43;;;;;;;;;;5068152;28;20076;-76
2023/01/29 10:05:40;;;;;;;11.38;6.55;;;;;;;;;;5069607;28;20474;-74
2023/01/29 10:08:24;;;;;;;10.80;6.80;;;;;;;;;;5069884;28;20107;-73
2023/01/29 10:10:54;;;;;;;13.07;7.10;;;;;;;;;;5072925;28;20103;-75
2023/01/29 10:13:34;;;;;;;12.50;6.93;;;;;;;;;;5068636;28;20030;-74
2023/01/29 10:16:35;;;;;;;11.32;6.68;;;;;;;;;;5071029;28;20032;-74
2023/01/29 10:19:20;;;;;;;10.60;6.22;;;;;;;;;;5072159;28;20024;-74
2023/01/29 10:22:21;;;;;;;12.70;6.45;;;;;;;;;;5057781;28;20036;-70
2023/01/29 10:24:59;;;;;;;9.73;6.10;;;;;;;;;;5008738;28;20061;-72
2023/01/29 10:27:31;;;;;;;10.55;6.45;;;;;;;;;;5060624;28;20040;-71
2023/01/29 10:29:58;;;;;;;10.80;6.47;;;;;;;;;;5068112;28;20025;-70
2023/01/29 10:32:25;;;;;;;10.80;6.78;;;;;;;;;;5069316;28;20107;-71
2023/01/29 10:35:25;;;;;;;10.32;6.70;;;;;;;;;;5068642;28;20056;-72
2023/01/29 10:37:52;;;;;;;11.10;6.43;;;;;;;;;;5067887;28;20134;-70
2023/01/29 10:40:45;;;;;;;10.55;6.05;;;;;;;;;;5068894;28;20157;-71
2023/01/29 10:43:15;;;;;;;10.45;5.78;;;;;;;;;;5065977;28;20507;-72
2023/01/29 10:45:47;;;;;;;10.43;6.22;;;;;;;;;;5068654;28;20551;-71
2023/01/29 10:48:34;;;;;;;9.93;6.50;;;;;;;;;;5068629;28;20024;-71
2023/01/29 10:51:10;;;;;;;11.32;6.25;;;;;;;;;;5069362;28;20077;-70
2023/01/29 10:53:58;;;;;;;10.43;6.10;;;;;;;;;;5069622;28;20033;-71
2023/01/29 10:56:29;;;;;;;9.38;5.90;;;;;;;;;;5069455;28;20078;-71
2023/01/29 10:58:57;;;;;;;9.75;5.57;;;;;;;;;;5069107;28;20071;-70
2023/01/29 11:01:23;;;;;;;9.77;6.15;;;;;;;;;;5068914;28;20396;-71
2023/01/29 11:04:01;;;;;;;11.30;6.10;;;;;;;;;;5068833;28;20518;-70
2023/01/29 11:06:32;;;;;;;9.77;5.80;;;;;;;;;;5069193;28;20078;-71
2023/01/29 11:09:12;;;;;;;11.60;5.75;;;;;;;;;;5068971;28;20512;-69
2023/01/29 11:12:32;;;;;;;10.35;6.15;;;;;;;;;;5068978;28;20028;-71
2023/01/29 11:15:00;;;;;;;8.63;5.50;;;;;;;;;;5006458;28;20049;-70
2023/01/29 11:17:26;;;;;;;9.40;5.38;;;;;;;;;;5056618;28;20048;-71
2023/01/29 11:19:56;;;;;;;8.40;5.20;;;;;;;;;;5068306;28;20033;-72
2023/01/29 11:22:28;;;;;;;10.10;4.90;;;;;;;;;;5068583;28;20484;-71
2023/01/29 11:25:17;;;;;;;9.10;5.28;;;;;;;;;;5069007;28;20086;-70
2023/01/29 11:27:45;;;;;;;7.97;4.57;;;;;;;;;;5048655;28;20029;-71
2023/01/29 11:30:24;;;;;;;7.40;4.88;;;;;;;;;;5048578;28;20599;-72
2023/01/29 11:33:04;;;;;;;9.50;4.80;;;;;;;;;;5048699;28;20029;-70
2023/01/29 11:35:32;;;;;;;8.02;4.95;;;;;;;;;;5048309;28;20033;-70
2023/01/29 11:38:22;;;;;;;7.82;4.95;;;;;;;;;;5048267;28;20020;-71
2023/01/29 11:40:48;;;;;;;8.75;4.88;;;;;;;;;;5048468;28;20049;-71
2023/01/29 11:43:26;;;;;;;8.30;4.80;;;;;;;;;;5048289;28;20043;-71
2023/01/29 11:46:03;;;;;;;8.02;4.80;;;;;;;;;;5048702;28;20047;-71
2023/01/29 11:48:42;;;;;;;9.25;5.30;;;;;;;;;;5048250;28;20045;-70
2023/01/29 11:51:11;;;;;;;8.25;4.70;;;;;;;;;;5048373;28;20112;-71
2023/01/29 11:53:42;;;;;;;6.35;4.40;;;;;;;;;;5048038;28;20102;-71
2023/01/29 11:56:47;;;;;;;7.30;4.68;;;;;;;;;;5046935;28;20021;-70
2023/01/29 11:59:43;;;;;;;9.10;5.00;;;;;;;;;;5051183;28;20037;-70
2023/01/29 12:02:30;;;;;;;8.50;5.00;;;;;;;;;;5049534;28;20052;-71
2023/01/29 12:05:03;;;;;;;8.82;5.25;;;;;;;;;;5048726;28;20396;-70
2023/01/29 12:07:30;;;;;;;7.75;5.00;;;;;;;;;;5048291;28;20584;-71
2023/01/29 12:09:58;;;;;;;9.38;4.72;;;;;;;;;;5048279;28;20029;-72
2023/01/29 12:12:38;;;;;;;6.22;4.25;;;;;;;;;;5048161;28;20021;-72
2023/01/29 12:15:18;;;;;;;8.63;4.57;;;;;;;;;;5048304;28;20025;-70
2023/01/29 12:17:56;;;;;;;7.78;4.88;;;;;;;;;;5048404;28;20021;-69
2023/01/29 12:20:27;;;;;;;7.78;4.55;;;;;;;;;;5048095;28;20163;-71
2023/01/29 12:23:03;;;;;;;6.85;4.53;;;;;;;;;;5048279;28;20036;-71
2023/01/29 12:25:40;;;;;;;7.85;5.07;;;;;;;;;;5048428;28;20480;-70
2023/01/29 12:28:30;;;;;;;7.35;4.63;;;;;;;;;;5047799;28;20064;-71
2023/01/29 12:31:19;;;;;;;8.25;4.82;;;;;;;;;;5047930;28;20385;-71
2023/01/29 12:34:23;;;;;;;7.78;5.13;;;;;;;;;;5047728;28;20035;-71
2023/01/29 12:37:10;;;;;;;8.70;4.70;;;;;;;;;;5048147;28;20079;-72
2023/01/29 12:39:36;;;;;;;8.10;4.80;;;;;;;;;;5047779;28;20021;-71
2023/01/29 12:42:09;;;;;;;6.95;4.25;;;;;;;;;;5049111;28;20092;-72
2023/01/29 12:44:44;;;;;;;6.32;4.25;;;;;;;;;;5051507;28;20214;-71
2023/01/29 12:47:29;;;;;;;7.50;4.60;;;;;;;;;;5051959;28;20017;-71
2023/01/29 12:49:59;;;;;;;8.07;4.25;;;;;;;;;;5051010;28;20602;-71
2023/01/29 12:52:42;;;;;;;6.35;4.10;;;;;;;;;;5051773;28;20420;-71
2023/01/29 12:55:17;;;;;;;6.90;4.20;;;;;;;;;;5051753;28;20553;-71
2023/01/29 12:57:52;;;;;;;7.72;4.75;;;;;;;;;;5051227;28;20040;-70
2023/01/29 13:00:22;;;;;;;7.07;4.65;;;;;;;;;;5051447;28;20028;-71
2023/01/29 13:03:07;;;;;;;5.95;3.97;;;;;;;;;;5050816;28;20055;-71
2023/01/29 13:05:46;;;;;;;7.05;4.07;;;;;;;;;;5050712;28;20098;-71
2023/01/29 13:08:34;;;;;;;6.95;3.72;;;;;;;;;;5051170;28;20021;-71
2023/01/29 13:11:02;;;;;;;7.65;4.25;;;;;;;;;;5051148;28;20079;-71
2023/01/29 13:13:51;;;;;;;6.40;4.00;;;;;;;;;;5051124;28;20036;-70
2023/01/29 13:16:21;;;;;;;6.38;4.07;;;;;;;;;;5051334;28;20082;-70
2023/01/29 13:18:55;;;;;;;7.28;4.07;;;;;;;;;;5050417;28;20381;-71
2023/01/29 13:21:26;;;;;;;6.07;3.92;;;;;;;;;;5050503;28;20102;-70
2023/01/29 13:24:16;;;;;;;7.20;4.38;;;;;;;;;;5050775;28;20062;-70
2023/01/29 13:26:46;;;;;;;8.43;4.53;;;;;;;;;;5045408;28;20040;-70
2023/01/29 13:29:29;;;;;;;8.47;4.40;;;;;;;;;;5050930;28;20083;-71
2023/01/29 13:31:56;;;;;;;7.03;4.07;;;;;;;;;;5051026;28;20263;-71
2023/01/29 13:34:27;;;;;;;6.43;4.30;;;;;;;;;;5050276;28;20037;-71
2023/01/29 13:36:55;;;;;;;6.70;3.92;;;;;;;;;;5050609;28;20032;-71
2023/01/29 13:39:27;;;;;;;6.20;4.07;;;;;;;;;;5048838;28;20071;-71
2023/01/29 13:41:53;;;;;;;6.45;4.43;;;;;;;;;;5050528;28;20108;-70
2023/01/29 13:44:23;;;;;;;8.02;4.30;;;;;;;;;;5050417;28;20105;-71
2023/01/29 13:47:01;;;;;;;8.35;4.50;;;;;;;;;;5050455;28;20645;-70
2023/01/29 13:50:01;;;;;;;7.60;4.70;;;;;;;;;;5049853;28;20029;-71
2023/01/29 13:52:53;;;;;;;6.85;4.57;;;;;;;;;;5046981;28;20052;-71
2023/01/29 13:55:29;;;;;;;7.75;4.40;;;;;;;;;;5050054;28;20108;-70
2023/01/29 13:57:59;;;;;;;7.90;4.68;;;;;;;;;;5050234;28;20028;-71
2023/01/29 14:00:33;;;;;;;9.43;4.47;;;;;;;;;;5049722;28;20033;-70
2023/01/29 14:03:04;;;;;;;10.48;4.60;;;;;;;;;;5049982;28;20057;-70
2023/01/29 14:05:29;;;;;;;8.80;5.10;;;;;;;;;;5049944;28;20024;-72
2023/01/29 14:08:12;;;;;;;7.03;4.40;;;;;;;;;;5050261;28;20025;-71
2023/01/29 14:10:39;;;;;;;6.50;4.13;;;;;;;;;;5049722;28;20079;-71
2023/01/29 14:13:17;;;;;;;6.93;4.30;;;;;;;;;;5050071;28;20021;-71
2023/01/29 14:16:03;;;;;;;7.90;5.13;;;;;;;;;;5049752;28;20025;-71
2023/01/29 14:18:33;;;;;;;8.18;4.18;;;;;;;;;;5028033;28;20036;-70
2023/01/29 14:21:19;;;;;;;7.47;4.47;;;;;;;;;;5049615;28;20029;-70
2023/01/29 14:24:16;;;;;;;6.53;4.15;;;;;;;;;;5047997;28;20285;-72
2023/01/29 14:26:47;;;;;;;7.93;4.07;;;;;;;;;;5046265;28;20033;-69
2023/01/29 14:29:15;;;;;;;7.10;4.13;;;;;;;;;;5049481;28;20035;-71
2023/01/29 14:32:18;;;;;;;7.28;4.57;;;;;;;;;;5049331;28;20078;-70
2023/01/29 14:34:48;;;;;;;7.53;4.57;;;;;;;;;;5051635;28;20043;-71
2023/01/29 14:37:13;;;;;;;7.38;4.30;;;;;;;;;;5053709;28;20508;-70
2023/01/29 14:39:50;;;;;;;7.35;4.53;;;;;;;;;;5058068;28;20033;-70
2023/01/29 14:42:24;;;;;;;8.18;4.85;;;;;;;;;;5051482;28;20599;-70
2023/01/29 14:44:53;;;;;;;7.40;4.60;;;;;;;;;;5052528;28;20040;-70
2023/01/29 14:47:21;;;;;;;7.20;4.75;;;;;;;;;;5053223;28;20109;-71
2023/01/29 14:49:57;;;;;;;8.20;4.45;;;;;;;;;;5049118;28;20075;-71
2023/01/29 14:52:32;;;;;;;7.05;4.30;;;;;;;;;;5049573;28;20508;-71
2023/01/29 14:55:00;;;;;;;6.28;4.20;;;;;;;;;;5049158;28;20060;-71
2023/01/29 14:57:29;;;;;;;7.40;4.07;;;;;;;;;;5049247;28;20104;-71
2023/01/29 15:00:00;;;;;;;8.15;4.40;;;;;;;;;;5048969;28;20025;-70
2023/01/29 15:02:39;;;;;;;7.53;4.25;;;;;;;;;;5049299;28;20068;-71
2023/01/29 15:05:21;;;;;;;7.70;4.18;;;;;;;;;;5047909;28;20085;-71
2023/01/29 15:07:53;;;;;;;6.75;3.90;;;;;;;;;;5049180;28;20029;-71
2023/01/29 15:10:42;;;;;;;8.55;4.38;;;;;;;;;;5048589;28;20446;-71
2023/01/29 15:13:23;;;;;;;6.80;4.05;;;;;;;;;;5049118;28;20035;-71
2023/01/29 15:15:57;;;;;;;7.47;4.55;;;;;;;;;;5048765;28;20039;-71
2023/01/29 15:18:31;;;;;;;6.47;4.38;;;;;;;;;;5048924;28;20056;-71
2023/01/29 15:21:15;;;;;;;8.20;4.57;;;;;;;;;;5048299;28;20060;-71
2023/01/29 15:23:42;;;;;;;7.85;4.57;;;;;;;;;;5047533;28;20032;-71
2023/01/29 15:26:15;;;;;;;7.93;4.57;;;;;;;;;;5048581;28;20396;-72
2023/01/29 15:28:41;;;;;;;10.05;4.68;;;;;;;;;;5048592;28;20055;-72
2023/01/29 15:31:12;;;;;;;9.40;5.10;;;;;;;;;;5048586;28;20068;-72
2023/01/29 15:33:41;;;;;;;9.65;5.30;;;;;;;;;;5048340;28;20037;-72
2023/01/29 15:36:14;;;;;;;9.52;4.95;;;;;;;;;;5048683;28;20036;-70
2023/01/29 15:38:40;;;;;;;7.63;4.78;;;;;;;;;;5048708;28;20036;-70